Time;durP1;ratioP1;P1;durP2;ratioP2;P2;SDS_P1;SDS_P2;PMS_P1;PMS_P2;Temp;Humidity;BMP_temperature;BMP_pressure;BME280_temperature;BME280_humidity;BME280_pressure;Samples;Min_cycle;Max_cycle;Signal;HPM_P1;HPM_P2
2024/01/30 00:00:21;;;;;;;8.85;3.63;;;8.70;99.90;;;8.68;100.00;102205.50;5250618;28;20506;-47
2024/01/30 00:02:54;;;;;;;10.70;4.03;;;8.70;99.90;;;8.67;100.00;102219.28;5234721;28;20040;-48
2024/01/30 00:05:27;;;;;;;6.18;3.63;;;8.70;99.90;;;8.66;100.00;102214.88;5241105;28;20047;-48
2024/01/30 00:08:00;;;;;;;8.48;3.45;;;8.70;99.90;;;8.65;100.00;102216.59;5244472;28;20057;-48
2024/01/30 00:10:32;;;;;;;5.60;3.47;;;8.70;99.90;;;8.62;100.00;102211.19;5256422;28;20414;-48
2024/01/30 00:13:05;;;;;;;10.27;4.03;;;8.60;99.90;;;8.60;100.00;102214.47;5248350;28;20046;-48
2024/01/30 00:15:37;;;;;;;11.27;4.03;;;8.60;99.90;;;8.57;100.00;102214.28;5246877;28;20048;-48
2024/01/30 00:18:10;;;;;;;8.38;3.38;;;8.60;99.90;;;8.54;100.00;102206.28;5236917;28;20056;-48
2024/01/30 00:20:43;;;;;;;16.30;3.47;;;8.50;99.90;;;8.53;100.00;102202.78;5249959;28;20068;-48
2024/01/30 00:23:16;;;;;;;7.30;4.25;;;8.50;99.90;;;8.52;100.00;102205.28;5243305;28;20048;-48
2024/01/30 00:25:48;;;;;;;7.32;3.35;;;8.60;99.90;;;8.54;100.00;102199.41;5245360;28;20031;-47
2024/01/30 00:28:21;;;;;;;8.82;3.88;;;8.50;99.90;;;8.55;100.00;102200.31;5238824;28;20055;-48
2024/01/30 00:30:53;;;;;;;10.13;3.22;;;8.50;99.90;;;8.53;100.00;102204.47;5239272;28;20136;-48
2024/01/30 00:33:26;;;;;;;11.73;4.22;;;8.50;99.90;;;8.51;100.00;102196.59;5243765;28;20131;-47
2024/01/30 00:36:00;;;;;;;6.43;3.45;;;8.50;99.90;;;8.50;100.00;102196.50;5241076;28;20049;-48
2024/01/30 00:38:36;;;;;;;5.55;3.17;;;8.50;99.90;;;8.47;100.00;102193.69;5247440;28;20049;-47
2024/01/30 00:41:09;;;;;;;6.78;3.20;;;8.50;99.90;;;8.43;100.00;102195.19;5245305;28;20055;-47
2024/01/30 00:43:41;;;;;;;12.85;3.20;;;8.40;99.90;;;8.42;100.00;102191.69;5243721;28;20048;-47
2024/01/30 00:46:14;;;;;;;8.05;4.07;;;8.40;99.90;;;8.39;100.00;102188.00;5253022;28;20047;-47
2024/01/30 00:48:46;;;;;;;5.25;2.75;;;8.40;99.90;;;8.40;100.00;102188.09;5242156;28;20430;-48
2024/01/30 00:51:20;;;;;;;6.32;3.42;;;8.40;99.90;;;8.41;100.00;102184.72;5240108;28;20436;-48
2024/01/30 00:53:52;;;;;;;7.45;3.55;;;8.40;99.90;;;8.41;100.00;102184.72;5243005;28;20067;-48
2024/01/30 00:56:25;;;;;;;8.10;3.55;;;8.40;99.90;;;8.41;100.00;102188.97;5246713;28;20036;-46
2024/01/30 00:58:57;;;;;;;7.00;3.35;;;8.40;99.90;;;8.40;100.00;102182.88;5240234;28;20057;-47
2024/01/30 01:01:30;;;;;;;7.72;3.05;;;8.40;99.90;;;8.40;100.00;102179.38;5245540;28;20052;-47
2024/01/30 01:04:02;;;;;;;9.43;3.38;;;8.40;99.90;;;8.39;100.00;102182.78;5232818;28;20052;-48
2024/01/30 01:06:36;;;;;;;5.95;3.72;;;8.40;99.90;;;8.37;100.00;102182.69;5239600;28;20040;-47
2024/01/30 01:09:08;;;;;;;6.50;3.35;;;8.40;99.90;;;8.35;100.00;102175.59;5244840;28;20400;-48
2024/01/30 01:11:40;;;;;;;8.10;3.53;;;8.40;99.90;;;8.34;100.00;102182.44;5244768;28;20158;-48
2024/01/30 01:14:13;;;;;;;7.68;3.58;;;8.40;99.90;;;8.32;100.00;102183.16;5240653;28;20053;-48
2024/01/30 01:16:45;;;;;;;7.13;3.42;;;8.30;99.90;;;8.30;100.00;102180.47;5247438;28;20067;-47
2024/01/30 01:19:17;;;;;;;6.65;3.20;;;8.30;99.90;;;8.28;100.00;102175.94;5244057;28;20054;-47
2024/01/30 01:21:51;;;;;;;9.05;3.72;;;8.30;99.90;;;8.27;100.00;102184.53;5237905;28;20056;-48
2024/01/30 01:24:24;;;;;;;8.38;4.07;;;8.20;99.90;;;8.25;100.00;102181.84;5241073;28;20392;-47
2024/01/30 01:26:57;;;;;;;5.10;3.28;;;8.30;99.90;;;8.23;100.00;102186.06;5237610;28;20139;-48
2024/01/30 01:29:29;;;;;;;6.63;3.22;;;8.20;99.90;;;8.20;100.00;102183.25;5235858;28;20192;-47
2024/01/30 01:32:01;;;;;;;7.60;3.05;;;8.20;99.90;;;8.19;100.00;102184.03;5241106;28;20055;-48
2024/01/30 01:34:34;;;;;;;5.00;3.20;;;8.30;99.90;;;8.18;100.00;102178.75;5239267;28;20064;-47
2024/01/30 01:37:07;;;;;;;7.57;2.97;;;8.20;99.90;;;8.17;100.00;102183.06;5242987;28;20045;-48
2024/01/30 01:39:40;;;;;;;6.50;3.90;;;8.20;99.90;;;8.21;100.00;102177.25;5251088;28;20102;-47
2024/01/30 01:42:12;;;;;;;7.07;3.22;;;8.20;99.90;;;8.22;100.00;102175.56;5236999;28;20056;-47
2024/01/30 01:44:48;;;;;;;5.22;3.25;;;8.30;99.90;;;8.23;100.00;102180.88;5238890;28;20044;-48
2024/01/30 01:47:20;;;;;;;7.88;3.83;;;8.20;99.90;;;8.26;100.00;102178.44;5242803;28;20044;-48
2024/01/30 01:49:53;;;;;;;7.95;3.88;;;8.30;99.90;;;8.26;100.00;102183.66;5237554;28;20495;-48
2024/01/30 01:52:27;;;;;;;8.82;3.78;;;8.30;99.90;;;8.27;100.00;102181.94;5238462;28;20048;-48
2024/01/30 01:55:00;;;;;;;3.90;2.92;;;8.30;99.90;;;8.29;100.00;102185.56;5244635;28;20063;-47
2024/01/30 01:57:32;;;;;;;6.10;2.95;;;8.30;99.90;;;8.32;100.00;102180.56;5244959;28;20121;-48
2024/01/30 02:00:07;;;;;;;6.72;3.40;;;8.30;99.90;;;8.33;100.00;102185.84;5240119;28;20432;-48
2024/01/30 02:02:42;;;;;;;7.13;3.40;;;8.40;99.90;;;8.35;100.00;102184.31;5256237;28;20044;-47
2024/01/30 02:05:15;;;;;;;7.20;3.95;;;8.40;99.90;;;8.39;100.00;102172.41;5243063;28;20063;-48
2024/01/30 02:07:49;;;;;;;6.20;3.33;;;8.40;99.90;;;8.39;100.00;102175.00;5249437;28;20127;-48
2024/01/30 02:10:22;;;;;;;7.20;4.63;;;8.40;99.90;;;8.38;100.00;102174.09;5247354;28;20052;-48
2024/01/30 02:12:54;;;;;;;9.73;3.33;;;8.50;99.90;;;8.39;100.00;102170.69;5246788;28;20134;-47
2024/01/30 02:15:26;;;;;;;8.57;3.70;;;8.50;99.90;;;8.41;100.00;102163.91;5238759;28;20048;-47
2024/01/30 02:17:59;;;;;;;9.50;3.38;;;8.50;99.90;;;8.41;100.00;102169.13;5246363;28;20040;-47
2024/01/30 02:20:32;;;;;;;8.82;3.63;;;8.50;99.90;;;8.42;100.00;102165.72;5246409;28;20067;-47
2024/01/30 02:23:10;;;;;;;6.40;2.80;;;8.50;99.90;;;8.42;100.00;102168.31;5249676;28;20055;-47
2024/01/30 02:25:45;;;;;;;9.85;3.60;;;8.50;99.90;;;8.41;100.00;102169.13;5246697;28;20052;-47
2024/01/30 02:28:17;;;;;;;6.28;3.63;;;8.50;99.90;;;8.39;100.00;102165.50;5234320;28;20074;-47
2024/01/30 02:30:49;;;;;;;10.00;3.28;;;8.50;99.90;;;8.43;100.00;102162.31;5235235;28;20131;-48
2024/01/30 02:33:22;;;;;;;7.43;4.43;;;8.50;99.90;;;8.42;100.00;102154.44;5237159;28;20134;-48
2024/01/30 02:35:54;;;;;;;6.55;3.67;;;8.50;99.90;;;8.45;100.00;102158.91;5237759;28;20097;-47
2024/01/30 02:38:31;;;;;;;7.10;3.30;;;8.50;99.90;;;8.46;100.00;102155.50;5241062;28;20082;-48
2024/01/30 02:41:04;;;;;;;6.85;3.22;;;8.60;99.90;;;8.49;100.00;102153.13;5240092;28;20048;-48
2024/01/30 02:43:36;;;;;;;7.72;3.75;;;8.60;99.90;;;8.51;100.00;102164.50;5245859;28;20526;-48
2024/01/30 02:46:09;;;;;;;6.10;3.33;;;8.60;99.90;;;8.55;100.00;102156.13;5254992;28;20064;-48
2024/01/30 02:48:41;;;;;;;4.35;2.85;;;8.60;99.90;;;8.55;100.00;102156.13;5244148;28;20041;-48
2024/01/30 02:51:13;;;;;;;5.95;3.28;;;8.60;99.90;;;8.56;100.00;102155.31;5247100;28;20048;-48
2024/01/30 02:53:47;;;;;;;10.48;3.10;;;8.60;99.90;;;8.58;100.00;102153.69;5247519;28;20056;-48
2024/01/30 02:56:20;;;;;;;11.65;3.95;;;8.60;99.90;;;8.56;100.00;102139.72;5238192;28;20056;-47
2024/01/30 02:58:52;;;;;;;9.07;3.65;;;8.60;99.90;;;8.59;100.00;102146.00;5234863;28;20510;-48
2024/01/30 03:01:25;;;;;;;10.23;3.40;;;8.70;99.90;;;8.59;100.00;102142.50;5245924;28;20055;-47
2024/01/30 03:03:57;;;;;;;5.15;3.13;;;8.70;99.90;;;8.59;100.00;102146.00;5251367;28;20591;-47
2024/01/30 03:06:29;;;;;;;7.72;3.40;;;8.70;99.90;;;8.61;100.00;102140.91;5244058;28;20450;-47
2024/01/30 03:09:04;;;;;;;6.18;3.00;;;8.70;99.90;;;8.61;100.00;102151.31;5237984;28;20515;-47
2024/01/30 03:11:37;;;;;;;6.80;3.13;;;8.70;99.90;;;8.58;100.00;102145.91;5239917;28;20049;-47
2024/01/30 03:14:10;;;;;;;8.75;3.53;;;8.70;99.90;;;8.58;100.00;102143.31;5250144;28;20055;-48
2024/01/30 03:16:46;;;;;;;7.22;3.35;;;8.70;99.90;;;8.57;100.00;102136.31;5238313;28;20044;-47
2024/01/30 03:19:18;;;;;;;6.95;3.40;;;8.70;99.90;;;8.58;100.00;102144.19;5240605;28;20155;-47
2024/01/30 03:21:51;;;;;;;7.30;2.90;;;8.70;99.90;;;8.58;100.00;102140.72;5248996;28;20048;-48
2024/01/30 03:24:24;;;;;;;11.95;2.95;;;8.70;99.90;;;8.60;100.00;102136.50;5250000;28;20091;-47
2024/01/30 03:27:00;;;;;;;5.07;3.30;;;8.70;99.90;;;8.58;100.00;102140.72;5244709;28;20036;-47
2024/01/30 03:29:32;;;;;;;4.18;3.22;;;8.70;99.90;;;8.55;100.00;102136.22;5244765;28;20511;-47
2024/01/30 03:32:06;;;;;;;5.78;3.25;;;8.70;99.90;;;8.56;100.00;102134.53;5238875;28;20044;-48
2024/01/30 03:34:41;;;;;;;12.98;3.70;;;8.70;99.90;;;8.55;100.00;102131.03;5235533;28;20082;-47
2024/01/30 03:37:14;;;;;;;8.30;4.10;;;8.70;99.90;;;8.54;100.00;102130.91;5238746;28;20430;-47
2024/01/30 03:39:47;;;;;;;7.88;3.25;;;8.70;99.90;;;8.53;100.00;102132.59;5242174;28;20431;-46
2024/01/30 03:42:20;;;;;;;5.72;3.20;;;8.60;99.90;;;8.52;100.00;102125.63;5241123;28;20200;-47
2024/01/30 03:44:53;;;;;;;5.03;2.90;;;8.70;99.90;;;8.51;100.00;102126.41;5249964;28;20136;-48
2024/01/30 03:47:25;;;;;;;6.70;3.10;;;8.60;99.90;;;8.51;100.00;102126.41;5244767;28;20048;-48
2024/01/30 03:49:58;;;;;;;3.85;3.08;;;8.60;99.90;;;8.53;100.00;102126.50;5236718;28;20048;-48
2024/01/30 03:52:30;;;;;;;6.45;3.80;;;8.60;99.90;;;8.48;100.00;102128.84;5257196;28;20052;-47
2024/01/30 03:55:05;;;;;;;12.80;3.92;;;8.60;99.90;;;8.48;100.00;102120.13;5246061;28;20048;-47
2024/01/30 03:57:37;;;;;;;7.93;3.83;;;8.60;99.90;;;8.48;100.00;102133.13;5244566;28;20044;-47
2024/01/30 04:00:11;;;;;;;6.53;2.92;;;8.60;99.90;;;8.49;100.00;102129.72;5256162;28;20456;-47
2024/01/30 04:02:50;;;;;;;7.15;3.50;;;8.50;99.90;;;8.46;100.00;102120.00;5240853;28;20041;-47
2024/01/30 04:05:23;;;;;;;9.80;4.32;;;8.60;99.90;;;8.42;100.00;102123.25;5245509;28;20055;-47
2024/01/30 04:07:55;;;;;;;9.57;3.85;;;8.50;99.90;;;8.43;100.00;102112.94;5240325;28;20048;-47
2024/01/30 04:10:29;;;;;;;8.65;4.35;;;8.50;99.90;;;8.46;100.00;102124.31;5250484;28;20048;-47
2024/01/30 04:13:02;;;;;;;7.97;4.95;;;8.50;99.90;;;8.45;100.00;102118.22;5248607;28;20048;-47
2024/01/30 04:15:34;;;;;;;8.27;3.80;;;8.50;99.90;;;8.42;100.00;102118.94;5244109;28;20146;-47
2024/01/30 04:18:07;;;;;;;7.88;3.85;;;8.50;99.90;;;8.41;100.00;102117.16;5242369;28;20526;-47
2024/01/30 04:20:39;;;;;;;7.40;3.55;;;8.50;99.90;;;8.39;100.00;102113.53;5241870;28;20546;-48
2024/01/30 04:23:12;;;;;;;8.13;4.47;;;8.50;99.90;;;8.38;100.00;102116.03;5244812;28;20078;-48
2024/01/30 04:25:46;;;;;;;8.20;4.07;;;8.50;99.90;;;8.38;100.00;102111.72;5250408;28;20043;-47
2024/01/30 04:28:19;;;;;;;10.60;3.85;;;8.50;99.90;;;8.37;100.00;102107.34;5231420;28;20525;-48
2024/01/30 04:30:55;;;;;;;7.72;3.28;;;8.50;99.90;;;8.38;100.00;102106.53;5248076;28;20398;-48
2024/01/30 04:33:27;;;;;;;7.68;3.70;;;8.50;99.90;;;8.38;100.00;102114.34;5242440;28;20044;-48
2024/01/30 04:35:59;;;;;;;5.30;3.70;;;8.50;99.90;;;8.39;100.00;102112.63;5233456;28;20453;-48
2024/01/30 04:38:32;;;;;;;5.97;2.90;;;8.50;99.90;;;8.38;100.00;102111.72;5237259;28;20495;-47
2024/01/30 04:41:06;;;;;;;7.90;3.17;;;8.50;99.90;;;8.37;100.00;102112.53;5244348;28;20055;-49
2024/01/30 04:43:39;;;;;;;6.40;2.78;;;8.50;99.90;;;8.38;100.00;102106.53;5234671;28;20079;-47
2024/01/30 04:46:11;;;;;;;6.55;3.13;;;8.40;99.90;;;8.36;100.00;102102.94;5248852;28;20047;-48
2024/01/30 04:48:46;;;;;;;6.22;3.08;;;8.40;99.90;;;8.34;100.00;102104.50;5245608;28;20384;-47
2024/01/30 04:51:19;;;;;;;6.78;3.70;;;8.40;99.90;;;8.32;100.00;102102.59;5238657;28;20565;-47
2024/01/30 04:53:51;;;;;;;6.15;2.92;;;8.40;99.90;;;8.29;100.00;102100.72;5243296;28;20048;-48
2024/01/30 04:56:25;;;;;;;9.13;3.33;;;8.40;99.90;;;8.27;100.00;102102.31;5247846;28;20072;-47
2024/01/30 04:58:57;;;;;;;9.60;3.20;;;8.40;99.90;;;8.26;100.00;102100.50;5245424;28;20518;-47
2024/01/30 05:01:30;;;;;;;4.68;3.20;;;8.40;99.90;;;8.25;100.00;102106.50;5238450;28;20056;-47
2024/01/30 05:04:03;;;;;;;6.15;3.10;;;8.40;99.90;;;8.24;100.00;102114.22;5242987;28;20503;-47
2024/01/30 05:06:35;;;;;;;8.15;4.07;;;8.30;99.90;;;8.24;100.00;102117.72;5245486;28;20131;-47
2024/01/30 05:09:11;;;;;;;5.97;3.05;;;8.30;99.90;;;8.23;100.00;102110.72;5242812;28;20047;-48
2024/01/30 05:11:45;;;;;;;8.45;3.53;;;8.30;99.90;;;8.24;100.00;102116.81;5238737;28;20299;-48
2024/01/30 05:14:17;;;;;;;5.60;3.10;;;8.30;99.90;;;8.23;100.00;102121.09;5234246;28;20052;-48
2024/01/30 05:16:50;;;;;;;7.20;3.80;;;8.30;99.90;;;8.18;100.00;102122.50;5238967;28;20071;-48
2024/01/30 05:19:23;;;;;;;5.30;2.88;;;8.30;99.90;;;8.17;100.00;102125.91;5244517;28;20048;-47
2024/01/30 05:21:55;;;;;;;5.25;3.13;;;8.30;99.90;;;8.16;100.00;102124.13;5242639;28;20089;-48
2024/01/30 05:24:27;;;;;;;6.10;3.90;;;8.30;99.90;;;8.15;100.00;102112.81;5239346;28;20119;-47
2024/01/30 05:27:02;;;;;;;6.90;3.47;;;8.30;99.90;;;8.13;100.00;102110.91;5237560;28;20215;-47
2024/01/30 05:29:34;;;;;;;5.65;3.95;;;8.20;99.90;;;8.06;100.00;102112.19;5241595;28;20154;-47
2024/01/30 05:32:07;;;;;;;4.75;3.35;;;8.20;99.90;;;8.05;100.00;102113.00;5238668;28;20099;-48
2024/01/30 05:34:39;;;;;;;9.73;5.30;;;8.20;99.90;;;8.04;100.00;102106.00;5246072;28;20052;-47
2024/01/30 05:37:14;;;;;;;16.95;6.95;;;8.10;99.90;;;8.02;100.00;102112.81;5237371;28;20048;-48
2024/01/30 05:39:46;;;;;;;8.82;4.10;;;8.10;99.90;;;8.01;100.00;102113.59;5235906;28;20072;-47
2024/01/30 05:42:20;;;;;;;7.55;4.25;;;8.10;99.90;;;8.01;100.00;102117.88;5240075;28;20044;-47
2024/01/30 05:44:56;;;;;;;12.30;3.78;;;8.10;99.90;;;7.99;100.00;102115.19;5245758;28;20071;-48
2024/01/30 05:47:28;;;;;;;7.30;4.53;;;8.10;99.90;;;7.98;100.00;102102.13;5250034;28;20134;-48
2024/01/30 05:50:00;;;;;;;6.97;4.10;;;8.10;99.90;;;7.97;100.00;102103.81;5241236;28;20460;-47
2024/01/30 05:52:33;;;;;;;6.32;3.28;;;8.10;99.90;;;7.98;100.00;102109.91;5248532;28;20396;-47
2024/01/30 05:55:06;;;;;;;6.90;3.65;;;8.10;99.90;;;8.00;100.00;102109.19;5247328;28;20056;-47
2024/01/30 05:57:39;;;;;;;5.93;3.90;;;8.10;99.90;;;8.02;100.00;102106.69;5241912;28;20048;-46
2024/01/30 06:00:13;;;;;;;7.85;3.92;;;8.10;99.90;;;8.06;100.00;102111.31;5244117;28;20541;-47
2024/01/30 06:02:45;;;;;;;7.45;3.92;;;8.10;99.90;;;8.03;100.00;102111.13;5249977;28;20334;-48
2024/01/30 06:05:18;;;;;;;5.25;3.42;;;8.10;99.90;;;8.05;100.00;102104.31;5238869;28;20044;-48
2024/01/30 06:07:50;;;;;;;8.35;3.65;;;8.20;99.90;;;8.07;100.00;102111.41;5252125;28;20044;-48
2024/01/30 06:10:23;;;;;;;7.43;3.60;;;8.20;99.90;;;8.11;100.00;102116.00;5248372;28;20059;-48
2024/01/30 06:12:56;;;;;;;6.85;3.08;;;8.20;99.90;;;8.09;100.00;102114.13;5244826;28;20055;-47
2024/01/30 06:15:29;;;;;;;7.55;4.00;;;8.20;99.90;;;8.03;100.00;102101.63;5245301;28;20055;-47
2024/01/30 06:18:02;;;;;;;6.18;3.28;;;8.20;99.90;;;8.04;100.00;102108.63;5250138;28;20413;-48
2024/01/30 06:20:34;;;;;;;10.43;3.30;;;8.20;99.90;;;8.00;100.00;102104.00;5243417;28;20052;-48
2024/01/30 06:23:10;;;;;;;7.95;4.15;;;8.20;99.90;;;8.03;100.00;102108.53;5251082;28;20059;-47
2024/01/30 06:25:42;;;;;;;7.32;3.45;;;8.10;99.90;;;8.02;100.00;102105.03;5250176;28;20048;-47
2024/01/30 06:28:16;;;;;;;6.15;3.45;;;8.20;99.90;;;8.02;100.00;102109.28;5250777;28;20052;-48
2024/01/30 06:30:48;;;;;;;4.88;3.17;;;8.20;99.90;;;8.04;100.00;102102.53;5248296;28;20040;-47
2024/01/30 06:33:20;;;;;;;5.68;3.40;;;8.20;99.90;;;8.04;100.00;102107.72;5242075;28;20063;-48
2024/01/30 06:35:53;;;;;;;7.55;3.33;;;8.10;99.90;;;8.05;100.00;102104.31;5247740;28;20052;-47
2024/01/30 06:38:26;;;;;;;6.25;3.63;;;8.20;99.90;;;8.03;100.00;102106.81;5250871;28;20051;-48
2024/01/30 06:40:58;;;;;;;7.50;4.18;;;8.20;99.90;;;8.05;100.00;102093.94;5238170;28;20052;-48
2024/01/30 06:43:32;;;;;;;6.32;3.67;;;8.20;99.90;;;8.01;100.00;102097.09;5244786;28;20121;-48
2024/01/30 06:46:04;;;;;;;7.18;3.17;;;8.10;99.90;;;8.02;100.00;102096.31;5250537;28;20044;-48
2024/01/30 06:48:40;;;;;;;7.85;3.47;;;8.20;99.90;;;8.04;100.00;102102.53;5245630;28;20408;-48
2024/01/30 06:51:12;;;;;;;7.72;3.30;;;8.20;99.90;;;8.04;100.00;102092.13;5254505;28;20123;-48
2024/01/30 06:53:45;;;;;;;5.40;2.92;;;8.20;99.90;;;8.05;100.00;102088.72;5246463;28;20870;-47
2024/01/30 06:56:20;;;;;;;4.38;3.20;;;8.20;99.90;;;8.06;100.00;102083.63;5239190;28;20052;-47
2024/01/30 06:58:54;;;;;;;5.03;2.95;;;8.20;99.90;;;8.09;100.00;102077.75;5241434;28;20105;-48
2024/01/30 07:01:29;;;;;;;5.10;3.22;;;8.30;99.90;;;8.12;100.00;102091.81;5242360;28;20041;-48
2024/01/30 07:04:02;;;;;;;6.53;3.20;;;8.30;99.90;;;8.15;100.00;102092.03;5256078;28;20052;-48
2024/01/30 07:06:34;;;;;;;9.60;3.60;;;8.30;99.90;;;8.17;100.00;102097.34;5250436;28;20055;-48
2024/01/30 07:09:06;;;;;;;13.13;2.90;;;8.30;99.90;;;8.21;100.00;102107.09;5245897;28;20411;-48
2024/01/30 07:11:39;;;;;;;7.57;2.95;;;8.30;99.90;;;8.21;100.00;102101.00;5256885;28;20070;-48
2024/01/30 07:14:13;;;;;;;7.50;3.70;;;8.30;99.90;;;8.22;100.00;102097.63;5249257;28;20048;-48
2024/01/30 07:16:45;;;;;;;6.15;3.60;;;8.40;99.90;;;8.23;100.00;102102.94;5243209;28;20048;-48
2024/01/30 07:19:17;;;;;;;6.72;3.53;;;8.40;99.90;;;8.22;100.00;102102.84;5238592;28;20048;-49
2024/01/30 07:21:50;;;;;;;6.28;3.25;;;8.40;99.90;;;8.20;100.00;102096.63;5249690;28;20052;-48
2024/01/30 07:24:22;;;;;;;8.43;4.20;;;8.40;99.90;;;8.19;100.00;102093.13;5242608;28;20044;-46
2024/01/30 07:26:54;;;;;;;6.35;3.40;;;8.40;99.90;;;8.23;100.00;102097.72;5245495;28;20090;-47
2024/01/30 07:29:28;;;;;;;6.45;3.70;;;8.40;99.90;;;8.22;100.00;102108.94;5245544;28;20047;-47
2024/01/30 07:32:00;;;;;;;6.13;3.33;;;8.40;99.90;;;8.22;100.00;102102.84;5247332;28;20051;-47
2024/01/30 07:34:33;;;;;;;6.80;4.07;;;8.40;99.90;;;8.23;100.00;102099.44;5241776;28;20137;-47
2024/01/30 07:37:08;;;;;;;13.52;4.00;;;8.40;99.90;;;8.25;100.00;102103.00;5239876;28;20075;-49
2024/01/30 07:39:40;;;;;;;;;;;8.40;99.90;;;8.26;100.00;102110.91;5236976;28;20040;-47
2024/01/30 07:42:12;;;;;;;5.15;3.00;;;8.40;99.90;;;8.24;100.00;102107.31;5262989;28;20046;-47
2024/01/30 07:44:46;;;;;;;5.55;2.80;;;8.40;99.90;;;8.26;100.00;102121.28;5246236;28;20067;-47
2024/01/30 07:47:18;;;;;;;6.43;3.00;;;8.40;99.90;;;8.26;100.00;102116.09;5239130;28;20541;-48
2024/01/30 07:49:51;;;;;;;6.57;3.70;;;8.40;99.90;;;8.30;100.00;102122.41;5241977;28;20055;-47
2024/01/30 07:52:23;;;;;;;5.95;3.03;;;8.40;99.90;;;8.28;100.00;102121.38;5237457;28;20044;-48
2024/01/30 07:54:56;;;;;;;7.40;3.50;;;8.40;99.90;;;8.33;100.00;102126.09;5249168;28;20056;-48
2024/01/30 07:57:28;;;;;;;7.30;3.28;;;8.50;99.90;;;8.35;100.00;102116.75;5247801;28;20052;-47
2024/01/30 08:00:03;;;;;;;8.15;3.28;;;8.40;99.90;;;8.36;100.00;102117.66;5245355;28;20052;-48
2024/01/30 08:02:39;;;;;;;7.78;3.95;;;8.50;99.90;;;8.37;100.00;102117.72;5259390;28;20051;-48
2024/01/30 08:05:11;;;;;;;8.68;3.30;;;8.50;99.90;;;8.40;100.00;102120.50;5246080;28;20044;-49
2024/01/30 08:07:44;;;;;;;6.00;4.55;;;8.50;99.90;;;8.41;100.00;102124.94;5241277;28;20052;-47
2024/01/30 08:10:18;;;;;;;10.60;3.70;;;8.50;99.90;;;8.46;100.00;102135.59;5230811;28;20044;-47
2024/01/30 08:12:51;;;;;;;6.25;3.88;;;8.60;99.90;;;8.51;100.00;102135.91;5246400;28;20048;-47
2024/01/30 08:15:24;;;;;;;8.00;3.40;;;8.60;99.90;;;8.53;100.00;102144.69;5240846;28;20055;-47
2024/01/30 08:17:58;;;;;;;4.40;3.20;;;8.60;99.90;;;8.60;100.00;102149.50;5248394;28;20040;-47
2024/01/30 08:20:31;;;;;;;6.40;3.63;;;8.60;99.90;;;8.61;100.00;102140.91;5238594;28;20059;-47
2024/01/30 08:23:03;;;;;;;6.63;3.75;;;8.70;99.90;;;8.60;100.00;102140.00;5248050;28;20044;-47
2024/01/30 08:25:36;;;;;;;7.72;3.53;;;8.70;99.90;;;8.60;100.00;102139.09;5247923;28;20044;-47
2024/01/30 08:28:08;;;;;;;8.18;4.00;;;8.70;99.90;;;8.62;100.00;102132.31;5250784;28;20043;-47
2024/01/30 08:30:42;;;;;;;10.93;3.78;;;8.70;99.90;;;8.64;100.00;102128.09;5241632;28;20059;-47
2024/01/30 08:33:15;;;;;;;9.80;3.75;;;8.70;99.90;;;8.64;100.00;102116.00;5237633;28;20041;-47
2024/01/30 08:35:47;;;;;;;10.38;3.30;;;8.80;99.90;;;8.68;100.00;102120.59;5243048;28;20044;-48
2024/01/30 08:38:19;;;;;;;5.88;2.72;;;8.80;99.90;;;8.71;100.00;102119.88;5244101;28;20044;-47
2024/01/30 08:40:52;;;;;;;7.18;3.58;;;8.80;99.90;;;8.70;100.00;102110.28;5243513;28;20442;-47
2024/01/30 08:43:24;;;;;;;7.80;3.75;;;8.80;99.90;;;8.72;100.00;102106.09;5254182;28;20517;-48
2024/01/30 08:46:00;;;;;;;4.50;2.58;;;8.80;99.90;;;8.75;100.00;102114.09;5247647;28;20048;-47
2024/01/30 08:48:32;;;;;;;11.90;3.70;;;8.80;99.90;;;8.81;100.00;102117.06;5244684;28;20044;-47
2024/01/30 08:51:08;;;;;;;5.15;3.33;;;8.90;99.90;;;8.84;100.00;102125.06;5243089;28;20040;-47
2024/01/30 08:53:40;;;;;;;7.65;3.25;;;8.90;99.90;;;9.05;100.00;102119.38;5246230;28;20044;-47
2024/01/30 08:56:16;;;;;;;8.38;4.07;;;9.10;99.90;;;9.18;100.00;102127.16;5251284;28;20068;-46
2024/01/30 08:58:48;;;;;;;8.90;4.38;;;9.20;99.90;;;9.19;100.00;102135.06;5251749;28;20053;-47
2024/01/30 09:01:26;;;;;;;8.60;3.33;;;9.30;99.90;;;9.17;100.00;102146.16;5241738;28;20048;-47
2024/01/30 09:03:58;;;;;;;7.60;4.32;;;9.30;99.90;;;9.23;100.00;102146.53;5237912;28;20060;-47
2024/01/30 09:06:31;;;;;;;7.28;3.30;;;9.30;99.90;;;9.29;100.00;102149.53;5245536;28;20052;-47
2024/01/30 09:09:04;;;;;;;5.93;3.13;;;9.40;99.90;;;9.38;100.00;102147.47;5237009;28;20055;-47
2024/01/30 09:11:37;;;;;;;6.75;3.55;;;9.40;99.90;;;9.48;100.00;102146.34;5248718;28;20175;-47
2024/01/30 09:14:09;;;;;;;5.97;3.30;;;9.50;99.90;;;9.57;100.00;102148.59;5249933;28;20482;-46
2024/01/30 09:16:43;;;;;;;8.35;3.33;;;9.60;99.90;;;9.64;100.00;102155.97;5251417;28;20047;-47
2024/01/30 09:19:18;;;;;;;9.73;4.75;;;9.60;99.90;;;9.66;100.00;102151.78;5244014;28;20071;-48
2024/01/30 09:21:51;;;;;;;9.05;3.05;;;9.70;99.90;;;9.69;100.00;102160.66;5239307;28;20655;-47
2024/01/30 09:24:23;;;;;;;8.65;4.30;;;9.70;99.90;;;9.72;100.00;102159.94;5248132;28;20040;-48
2024/01/30 09:26:55;;;;;;;9.15;4.03;;;9.70;99.90;;;9.75;100.00;102162.72;5244279;28;20056;-47
2024/01/30 09:29:31;;;;;;;7.85;4.32;;;9.70;99.90;;;9.76;100.00;102173.22;5248182;28;20036;-47
2024/01/30 09:32:06;;;;;;;9.45;4.55;;;9.70;99.90;;;9.77;100.00;102179.31;5247648;28;20072;-47
2024/01/30 09:34:39;;;;;;;8.68;4.05;;;9.70;99.90;;;9.74;100.00;102181.75;5245029;28;20048;-47
2024/01/30 09:37:12;;;;;;;8.32;4.32;;;9.80;99.90;;;9.81;100.00;102183.03;5252211;28;20118;-48
2024/01/30 09:39:44;;;;;;;9.90;3.55;;;9.80;99.90;;;9.92;100.00;102177.66;5255082;28;20055;-48
2024/01/30 09:42:27;;;;;;;6.90;3.88;;;9.80;99.90;;;10.00;100.00;102184.22;5246532;28;20045;-47
2024/01/30 09:45:00;;;;;;;9.05;3.30;;;9.90;99.90;;;10.21;100.00;102184.56;5251795;28;20129;-47
2024/01/30 09:47:41;;;;;;;6.35;4.13;;;10.10;99.90;;;10.46;100.00;102186.03;5248260;28;20036;-47
2024/01/30 09:50:15;;;;;;;6.45;3.75;;;10.30;99.90;;;10.66;100.00;102185.44;5255923;28;20097;-47
2024/01/30 09:52:49;;;;;;;8.32;3.67;;;10.40;99.90;;;10.78;100.00;102185.25;5245852;28;20051;-47
2024/01/30 09:55:22;;;;;;;6.82;3.85;;;10.60;99.90;;;10.91;100.00;102187.72;5250940;28;20041;-48
2024/01/30 09:57:55;;;;;;;6.93;3.42;;;10.70;99.90;;;11.01;100.00;102187.41;5242934;28;20055;-48
2024/01/30 10:00:27;;;;;;;7.30;3.40;;;10.80;99.90;;;11.08;100.00;102181.72;5246761;28;20040;-48
2024/01/30 10:03:01;;;;;;;8.85;4.30;;;10.90;99.90;;;11.11;100.00;102197.53;5252082;28;20067;-47
2024/01/30 10:05:37;;;;;;;8.48;3.55;;;10.90;99.90;;;11.09;100.00;102193.06;5251586;28;20064;-48
2024/01/30 10:08:10;;;;;;;8.13;3.67;;;10.90;99.90;;;11.02;100.00;102190.91;5245786;28;20052;-48
2024/01/30 10:10:42;;;;;;;7.50;3.85;;;10.90;99.90;;;11.00;100.00;102197.75;5245297;28;20125;-48
2024/01/30 10:13:15;;;;;;;6.60;3.60;;;10.90;99.90;;;11.05;100.00;102202.41;5247217;28;20048;-47
2024/01/30 10:15:49;;;;;;;7.28;3.20;;;10.90;99.90;;;11.13;100.00;102206.34;5245533;28;21804;-48
2024/01/30 10:18:24;;;;;;;6.30;3.58;;;11.00;99.90;;;11.18;100.00;102192.66;5240974;28;20584;-47
2024/01/30 10:20:56;;;;;;;6.20;3.58;;;11.00;99.90;;;11.21;100.00;102200.63;5257463;28;20510;-48
2024/01/30 10:23:32;;;;;;;6.32;3.35;;;11.00;99.90;;;11.24;100.00;102198.22;5253585;28;20044;-47
2024/01/30 10:26:05;;;;;;;8.60;3.60;;;11.10;99.90;;;11.27;100.00;102196.63;5247384;28;20537;-47
2024/01/30 10:28:38;;;;;;;8.73;4.05;;;11.20;99.90;;;11.29;100.00;102213.31;5240353;28;20081;-48
2024/01/30 10:31:10;;;;;;;11.32;4.93;;;11.10;99.90;;;11.31;100.00;102200.34;5252424;28;20067;-48
2024/01/30 10:33:46;;;;;;;6.57;4.18;;;11.20;99.90;;;11.29;100.00;102191.53;5248545;28;20066;-48
2024/01/30 10:36:19;;;;;;;6.93;4.07;;;11.20;99.90;;;11.31;100.00;102189.88;5248019;28;20072;-48
2024/01/30 10:38:54;;;;;;;7.65;3.95;;;11.20;99.90;;;11.28;100.00;102195.84;5244783;28;20044;-48
2024/01/30 10:41:28;;;;;;;9.10;4.20;;;11.20;99.90;;;11.28;100.00;102194.94;5256834;28;20052;-48